Umit G — TCVF — position and weather

sailwx.info

Track history (hours):
 
Tides and Currents Weather Stations Pressure Air Temp Water Temp Dewpoint Dewpoint Depression Visibility Wind Speed Wind Dir Waves Ship Positions

Umit G

Last reported at 2017-Nov-20 00:25 UTC. Time now 2017-Nov-21 21:09 UTC.
Position N 44°17' E 008°29'.

Length 95 m; draft 5 m.

Type: Ship. MMSI: 271000359.

Date/timePositionNaut miles runAvg speedWind from/ knotsBaromVisibWave heightAir tempDewpointWater temp
2017-Nov-20 00:25N 44°17' E 008°29'0 0.0
2017-Nov-19 23:55N 44°17' E 008°29'0 0.0
2017-Nov-19 23:25N 44°17' E 008°29'0 0.0
2017-Nov-19 22:55N 44°17' E 008°29'0 0.0
2017-Nov-19 22:25N 44°17' E 008°29'0 0.0
2017-Nov-19 21:55N 44°17' E 008°29'0 0.8
2017-Nov-19 21:31N 44°17' E 008°29'4 7.5
2017-Nov-19 21:01N 44°14' E 008°32'26 9.7
2017-Nov-19 18:21N 43°53' E 008°53'310.1
2017-Nov-19 18:00N 43°50' E 008°56'510.0
2017-Nov-19 17:30N 43°47' E 009°01'510.1
2017-Nov-19 17:01N 43°43' E 009°05'5 9.9
2017-Nov-19 16:29N 43°39' E 009°09'5 9.7
2017-Nov-19 16:00N 43°35' E 009°13'380 9.1
2017-Nov-17 22:21N 38°15' E 013°43'3 8.5
2017-Nov-17 22:00N 38°12' E 013°43'5 8.8
2017-Nov-17 21:29N 38°07' E 013°43'4 8.9
2017-Nov-17 21:00N 38°03' E 013°43'4 7.2
2017-Nov-17 20:30N 37°59' E 013°43'0 0.8
2017-Nov-17 20:00N 37°59' E 013°43'0 0.0
2017-Nov-17 19:30N 37°59' E 013°43'0 0.0
2017-Nov-17 18:57N 37°59' E 013°43'0 0.0
2017-Nov-17 18:27N 37°59' E 013°43'0 0.0
2017-Nov-17 17:57N 37°59' E 013°43'0 0.0
2017-Nov-17 17:30N 37°59' E 013°43'0 0.0
2017-Nov-17 17:00N 37°59' E 013°43'0 0.0
2017-Nov-17 16:27N 37°59' E 013°43'0 0.0
2017-Nov-17 15:57N 37°59' E 013°43'0 0.0
2017-Nov-17 15:30N 37°59' E 013°43'0 0.0
2017-Nov-17 14:57N 37°59' E 013°43'0 0.0
2017-Nov-17 14:30N 37°59' E 013°43'0 0.0
2017-Nov-17 13:45N 37°59' E 013°43'0 0.0
2017-Nov-17 13:18N 37°59' E 013°43'0 0.0
2017-Nov-17 13:00N 37°59' E 013°43'0 0.0
2017-Nov-17 12:30N 37°59' E 013°43'0 0.0
2017-Nov-17 11:54N 37°59' E 013°43'0 0.0
2017-Nov-17 11:30N 37°59' E 013°43'0 0.0
2017-Nov-17 10:54N 37°59' E 013°43'0 0.0
2017-Nov-17 10:30N 37°59' E 013°43'0 0.0
2017-Nov-17 09:51N 37°59' E 013°43'0 0.0
2017-Nov-17 09:30N 37°59' E 013°43'0 0.0
2017-Nov-17 08:51N 37°59' E 013°43'0 0.0
2017-Nov-17 08:21N 37°59' E 013°43'0 0.0
2017-Nov-17 07:51N 37°59' E 013°43'0 0.0
2017-Nov-17 07:21N 37°59' E 013°43'0 0.0
2017-Nov-17 06:54N 37°59' E 013°43'0 0.0
2017-Nov-17 06:21N 37°59' E 013°43'0 0.0
2017-Nov-17 06:00N 37°59' E 013°43'0 0.0
2017-Nov-17 05:30N 37°59' E 013°43'0 0.0
2017-Nov-17 05:00N 37°59' E 013°43'0 0.0
2017-Nov-17 04:27N 37°59' E 013°43'0 0.0
2017-Nov-17 03:57N 37°59' E 013°43'0 0.0
2017-Nov-17 03:27N 37°59' E 013°43'0 0.0
2017-Nov-17 02:57N 37°59' E 013°43'0 0.0
2017-Nov-17 02:27N 37°59' E 013°43'0 0.0
2017-Nov-17 02:00N 37°59' E 013°43'0 0.0
2017-Nov-17 01:27N 37°59' E 013°43'0 0.0
2017-Nov-17 00:57N 37°59' E 013°43'0 0.0
2017-Nov-17 00:30N 37°59' E 013°43'0 0.0
2017-Nov-17 00:00N 37°59' E 013°43'0 0.0
2017-Nov-16 23:24N 37°59' E 013°43'0 0.0
2017-Nov-16 22:51N 37°59' E 013°43'0 0.0
2017-Nov-16 22:21N 37°59' E 013°43'0 0.0
2017-Nov-16 22:00N 37°59' E 013°43'0 0.0
2017-Nov-16 21:21N 37°59' E 013°43'0 0.0
2017-Nov-16 20:48N 37°59' E 013°43'0 0.0
2017-Nov-16 20:21N 37°59' E 013°43'0 0.0
2017-Nov-16 19:51N 37°59' E 013°43'0 0.0
2017-Nov-16 19:21N 37°59' E 013°43'0 0.0
2017-Nov-16 18:39N 37°59' E 013°43'0 0.0
2017-Nov-16 18:09N 37°59' E 013°43'0 0.0
2017-Nov-16 17:51N 37°59' E 013°43'0 0.0
2017-Nov-16 16:21N 37°59' E 013°43'0 0.0
2017-Nov-16 09:21N 37°59' E 013°43'0 0.0
2017-Nov-16 09:00N 37°59' E 013°43'0 0.0
2017-Nov-16 08:21N 37°59' E 013°43'0 0.0
2017-Nov-16 07:51N 37°59' E 013°43'0 0.0
2017-Nov-16 07:03N 37°59' E 013°43'0 0.0
2017-Nov-16 06:51N 37°59' E 013°43'0 0.0
2017-Nov-16 06:24N 37°59' E 013°43'0 0.0
2017-Nov-16 06:00N 37°59' E 013°43'0 0.0
2017-Nov-16 05:30N 37°59' E 013°43'0 0.0
2017-Nov-16 04:54N 37°59' E 013°43'0 0.0
2017-Nov-16 04:21N 37°59' E 013°43'0 0.0
2017-Nov-16 03:42N 37°59' E 013°43'0 0.0
2017-Nov-16 03:21N 37°59' E 013°43'0 0.0
2017-Nov-16 02:57N 37°59' E 013°43'0 0.0
2017-Nov-16 02:27N 37°59' E 013°43'0 0.0
2017-Nov-16 02:00N 37°59' E 013°43'0 0.0
2017-Nov-16 01:30N 37°59' E 013°43'0 0.0
2017-Nov-16 00:45N 37°59' E 013°43'0 0.0
2017-Nov-16 00:27N 37°59' E 013°43'0 0.0
2017-Nov-15 23:54N 37°59' E 013°43'0 0.0
2017-Nov-15 23:30N 37°59' E 013°43'0 0.0
2017-Nov-15 22:57N 37°59' E 013°43'0 0.0
2017-Nov-15 22:27N 37°59' E 013°43'0 0.0
2017-Nov-15 21:57N 37°59' E 013°43'0 0.0
2017-Nov-15 21:27N 37°59' E 013°43'0 0.0
2017-Nov-15 21:00N 37°59' E 013°43'0 0.0
2017-Nov-15 20:30N 37°59' E 013°43'0 0.0
2017-Nov-15 20:00N 37°59' E 013°43'0 0.0
2017-Nov-15 19:21N 37°59' E 013°43'0 0.0
2017-Nov-15 08:27N 37°59' E 013°43'0 0.0
2017-Nov-15 07:57N 37°59' E 013°43'0 0.0
2017-Nov-15 07:30N 37°59' E 013°43'0 0.0
2017-Nov-15 06:48N 37°59' E 013°43'0 0.0
2017-Nov-15 06:30N 37°59' E 013°43'0 0.0
2017-Nov-15 05:51N 37°59' E 013°43'0 0.0
2017-Nov-15 05:21N 37°59' E 013°43'0 0.0
2017-Nov-15 05:00N 37°59' E 013°43'0 0.0
2017-Nov-15 04:24N 37°59' E 013°43'0 0.0
2017-Nov-15 03:51N 37°59' E 013°43'0 0.0
2017-Nov-15 03:21N 37°59' E 013°43'0 0.0
2017-Nov-15 02:51N 37°59' E 013°43'0 0.0
2017-Nov-15 02:21N 37°59' E 013°43'0 0.0
2017-Nov-15 01:54N 37°59' E 013°43'0 0.0
2017-Nov-15 01:21N 37°59' E 013°43'0 0.0
2017-Nov-15 00:51N 37°59' E 013°43'0 0.0
2017-Nov-15 00:21N 37°59' E 013°43'0 0.0
2017-Nov-14 23:51N 37°59' E 013°43'0 0.0
2017-Nov-14 23:27N 37°59' E 013°43'0 0.0
2017-Nov-14 22:57N 37°59' E 013°43'0 0.0
2017-Nov-14 22:27N 37°59' E 013°43'0 0.0
2017-Nov-14 21:57N 37°59' E 013°43'0 0.0
2017-Nov-14 21:30N 37°59' E 013°43'0 0.0
2017-Nov-14 20:57N 37°59' E 013°43'0 0.0
2017-Nov-14 20:27N 37°59' E 013°43'0 0.0
2017-Nov-14 19:57N 37°59' E 013°43'0 0.0
2017-Nov-14 19:27N 37°59' E 013°43'0 0.0
2017-Nov-14 18:57N 37°59' E 013°43'0 0.0
2017-Nov-14 18:27N 37°59' E 013°43'0 0.0
2017-Nov-14 17:45N 37°59' E 013°43'0 0.0
2017-Nov-14 17:15N 37°59' E 013°43'0 0.0
2017-Nov-14 17:00N 37°59' E 013°43'0 0.0
2017-Nov-14 16:03N 37°59' E 013°43'0 0.1
2017-Nov-14 16:00N 37°59' E 013°43'0 0.0
2017-Nov-14 15:18N 37°59' E 013°43'0 0.0
2017-Nov-14 14:51N 37°59' E 013°43'0 0.0
2017-Nov-14 14:21N 37°59' E 013°43'0 0.0
2017-Nov-14 13:51N 37°59' E 013°43'0 0.0
2017-Nov-14 13:21N 37°59' E 013°43'0 0.0
2017-Nov-14 12:21N 37°59' E 013°43'0 0.0
2017-Nov-14 11:39N 37°59' E 013°43'0 0.0
2017-Nov-14 11:21N 37°59' E 013°43'0 0.0
2017-Nov-14 10:57N 37°59' E 013°43'0 0.0
2017-Nov-14 10:27N 37°59' E 013°43'0 0.0
2017-Nov-14 09:57N 37°59' E 013°43'0 0.0
2017-Nov-14 09:27N 37°59' E 013°43'0 0.0
2017-Nov-14 08:39N 37°59' E 013°43'0 0.0
2017-Nov-14 08:30N 37°59' E 013°43'0 0.0
2017-Nov-14 07:57N 37°59' E 013°43'0 0.0
2017-Nov-14 07:27N 37°59' E 013°43'0 0.0
2017-Nov-14 06:57N 37°59' E 013°43'0 0.0
2017-Nov-14 06:27N 37°59' E 013°43'0 0.0
2017-Nov-14 06:00N 37°59' E 013°43'0 0.0
2017-Nov-14 05:27N 37°59' E 013°43'0 0.0
2017-Nov-14 04:27N 37°59' E 013°43'0 0.0
2017-Nov-14 03:45N 37°59' E 013°43'0 0.0
2017-Nov-14 03:03N 37°59' E 013°43'0 0.0
2017-Nov-14 02:33N 37°59' E 013°43'0 0.0
2017-Nov-14 02:15N 37°59' E 013°43'0 0.0
2017-Nov-14 01:45N 37°59' E 013°43'0 0.0
2017-Nov-14 01:21N 37°59' E 013°43'0 0.0
2017-Nov-13 22:39N 37°59' E 013°43'0 0.0
2017-Nov-13 22:21N 37°59' E 013°43'0 0.0
2017-Nov-13 21:39N 37°59' E 013°43'0 0.0
2017-Nov-13 01:57N 37°59' E 013°43'0 0.0
2017-Nov-13 01:27N 37°59' E 013°43'0 0.0
2017-Nov-13 00:45N 37°59' E 013°43'0 0.0
2017-Nov-13 00:15N 37°59' E 013°43'0 0.0
2017-Nov-12 23:45N 37°59' E 013°43'0 0.0
2017-Nov-12 11:03N 37°59' E 013°43'0 0.0
2017-Nov-12 10:33N 37°59' E 013°43'0 0.0
2017-Nov-12 10:15N 37°59' E 013°43'0 0.0
2017-Nov-12 09:51N 37°59' E 013°43'0 0.0
2017-Nov-12 09:21N 37°59' E 013°43'0 0.0
2017-Nov-12 08:51N 37°59' E 013°43'0 0.0
2017-Nov-12 08:21N 37°59' E 013°43'0 0.0
2017-Nov-12 07:51N 37°59' E 013°43'0 0.0
2017-Nov-12 07:21N 37°59' E 013°43'0 0.0
2017-Nov-12 06:51N 37°59' E 013°43'0 0.0
2017-Nov-12 06:21N 37°59' E 013°43'0 0.0
2017-Nov-12 05:51N 37°59' E 013°43'0 0.0
2017-Nov-12 05:21N 37°59' E 013°43'0 0.0
2017-Nov-12 03:39N 37°59' E 013°43'0 0.0
2017-Nov-12 03:09N 37°59' E 013°43'0 0.0
2017-Nov-12 02:57N 37°59' E 013°43'0 0.0
2017-Nov-11 12:57N 37°59' E 013°43'0 0.0
2017-Nov-11 12:27N 37°59' E 013°43'0 0.0
2017-Nov-11 12:00N 37°59' E 013°43'0 0.0
2017-Nov-11 11:30N 37°59' E 013°43'0 0.0
2017-Nov-11 11:00N 37°59' E 013°43'0 0.0
2017-Nov-11 10:27N 37°59' E 013°43'0 0.0
2017-Nov-11 10:00N 37°59' E 013°43'0 0.0
2017-Nov-11 09:27N 37°59' E 013°43'0 0.0
2017-Nov-11 08:57N 37°59' E 013°43'0 0.0
2017-Nov-11 08:30N 37°59' E 013°43'0 0.0
2017-Nov-11 07:48N 37°59' E 013°43'0 0.0
2017-Nov-11 07:15N 37°59' E 013°43'0 0.0
2017-Nov-11 07:00N 37°59' E 013°43'0 0.0
2017-Nov-11 06:15N 37°59' E 013°43'0 0.0
2017-Nov-11 05:51N 37°59' E 013°43'0 0.0
2017-Nov-11 05:21N 37°59' E 013°43'0 0.0
2017-Nov-11 04:51N 37°59' E 013°43'0 0.0
2017-Nov-11 04:21N 37°59' E 013°43'0 0.0
2017-Nov-11 03:51N 37°59' E 013°43'0 0.0
2017-Nov-11 03:21N 37°59' E 013°43'0 0.0
2017-Nov-11 02:51N 37°59' E 013°43'0 0.0
2017-Nov-11 02:24N 37°59' E 013°43'0 0.0
2017-Nov-11 01:54N 37°59' E 013°43'0 0.0
2017-Nov-11 01:21N 37°59' E 013°43'0 0.0
2017-Nov-11 00:57N 37°59' E 013°43'0 0.0
2017-Nov-11 00:27N 37°59' E 013°43'0 0.0
2017-Nov-11 00:01N 37°59' E 013°43'1 1.1
2017-Nov-10 23:29N 37°59' E 013°43'1 3.1
2017-Nov-10 23:01N 38°00' E 013°44'1 2.8
2017-Nov-10 22:31N 38°01' E 013°45'0 0.7
2017-Nov-10 22:00N 38°02' E 013°46'1 2.0
2017-Nov-10 21:30N 38°02' E 013°47'2 3.5
2017-Nov-10 21:00N 38°03' E 013°49'2 4.3
2017-Nov-10 20:31N 38°04' E 013°51'2 4.3
2017-Nov-10 20:00N 38°06' E 013°53'3 5.0
2017-Nov-10 19:29N 38°07' E 013°56'65 8.3
2017-Nov-10 11:38N 38°19' E 015°17'1 8.2
2017-Nov-10 11:30N 38°19' E 015°19'4 8.6
2017-Nov-10 11:00N 38°19' E 015°24'4 8.4
2017-Nov-10 10:30N 38°19' E 015°29'4 8.4
2017-Nov-10 10:00N 38°19' E 015°35'4 8.1
2017-Nov-10 09:29N 38°18' E 015°40'3 6.0
2017-Nov-10 09:00N 38°15' E 015°40'4 8.5
2017-Nov-10 08:30N 38°12' E 015°37'4 8.1
2017-Nov-10 08:00N 38°08' E 015°36'4 8.5
2017-Nov-10 07:30N 38°03' E 015°36'4 8.2
2017-Nov-10 07:01N 37°59' E 015°36'5 7.9
2017-Nov-10 06:25N 37°55' E 015°39'3 8.1
2017-Nov-10 06:00N 37°53' E 015°42'  
Track history (hours):
 
Tides and Currents Weather Stations Pressure Air Temp Water Temp Dewpoint Dewpoint Depression Visibility Wind Speed Wind Dir Waves Ship Positions

Umit G

Last reported at 2017-Nov-20 00:25 UTC. Time now 2017-Nov-21 21:09 UTC.
Position N 44°17' E 008°29'.

Length 95 m; draft 5 m.

Type: Ship. MMSI: 271000359.

Date/timePositionNaut miles runAvg speedWind from/ knotsBaromVisibWave heightAir tempDewpointWater temp
2017-Nov-20 00:25N 44°17' E 008°29'0 0.0
2017-Nov-19 23:55N 44°17' E 008°29'0 0.0
2017-Nov-19 23:25N 44°17' E 008°29'0 0.0
2017-Nov-19 22:55N 44°17' E 008°29'0 0.0
2017-Nov-19 22:25N 44°17' E 008°29'0 0.0
2017-Nov-19 21:55N 44°17' E 008°29'0 0.8
2017-Nov-19 21:31N 44°17' E 008°29'4 7.5
2017-Nov-19 21:01N 44°14' E 008°32'26 9.7
2017-Nov-19 18:21N 43°53' E 008°53'310.1
2017-Nov-19 18:00N 43°50' E 008°56'510.0
2017-Nov-19 17:30N 43°47' E 009°01'510.1
2017-Nov-19 17:01N 43°43' E 009°05'5 9.9
2017-Nov-19 16:29N 43°39' E 009°09'5 9.7
2017-Nov-19 16:00N 43°35' E 009°13'380 9.1
2017-Nov-17 22:21N 38°15' E 013°43'3 8.5
2017-Nov-17 22:00N 38°12' E 013°43'5 8.8
2017-Nov-17 21:29N 38°07' E 013°43'4 8.9
2017-Nov-17 21:00N 38°03' E 013°43'4 7.2
2017-Nov-17 20:30N 37°59' E 013°43'0 0.8
2017-Nov-17 20:00N 37°59' E 013°43'0 0.0
2017-Nov-17 19:30N 37°59' E 013°43'0 0.0
2017-Nov-17 18:57N 37°59' E 013°43'0 0.0
2017-Nov-17 18:27N 37°59' E 013°43'0 0.0
2017-Nov-17 17:57N 37°59' E 013°43'0 0.0
2017-Nov-17 17:30N 37°59' E 013°43'0 0.0
2017-Nov-17 17:00N 37°59' E 013°43'0 0.0
2017-Nov-17 16:27N 37°59' E 013°43'0 0.0
2017-Nov-17 15:57N 37°59' E 013°43'0 0.0
2017-Nov-17 15:30N 37°59' E 013°43'0 0.0
2017-Nov-17 14:57N 37°59' E 013°43'0 0.0
2017-Nov-17 14:30N 37°59' E 013°43'0 0.0
2017-Nov-17 13:45N 37°59' E 013°43'0 0.0
2017-Nov-17 13:18N 37°59' E 013°43'0 0.0
2017-Nov-17 13:00N 37°59' E 013°43'0 0.0
2017-Nov-17 12:30N 37°59' E 013°43'0 0.0
2017-Nov-17 11:54N 37°59' E 013°43'0 0.0
2017-Nov-17 11:30N 37°59' E 013°43'0 0.0
2017-Nov-17 10:54N 37°59' E 013°43'0 0.0
2017-Nov-17 10:30N 37°59' E 013°43'0 0.0
2017-Nov-17 09:51N 37°59' E 013°43'0 0.0
2017-Nov-17 09:30N 37°59' E 013°43'0 0.0
2017-Nov-17 08:51N 37°59' E 013°43'0 0.0
2017-Nov-17 08:21N 37°59' E 013°43'0 0.0
2017-Nov-17 07:51N 37°59' E 013°43'0 0.0
2017-Nov-17 07:21N 37°59' E 013°43'0 0.0
2017-Nov-17 06:54N 37°59' E 013°43'0 0.0
2017-Nov-17 06:21N 37°59' E 013°43'0 0.0
2017-Nov-17 06:00N 37°59' E 013°43'0 0.0
2017-Nov-17 05:30N 37°59' E 013°43'0 0.0
2017-Nov-17 05:00N 37°59' E 013°43'0 0.0
2017-Nov-17 04:27N 37°59' E 013°43'0 0.0
2017-Nov-17 03:57N 37°59' E 013°43'0 0.0
2017-Nov-17 03:27N 37°59' E 013°43'0 0.0
2017-Nov-17 02:57N 37°59' E 013°43'0 0.0
2017-Nov-17 02:27N 37°59' E 013°43'0 0.0
2017-Nov-17 02:00N 37°59' E 013°43'0 0.0
2017-Nov-17 01:27N 37°59' E 013°43'0 0.0
2017-Nov-17 00:57N 37°59' E 013°43'0 0.0
2017-Nov-17 00:30N 37°59' E 013°43'0 0.0
2017-Nov-17 00:00N 37°59' E 013°43'0 0.0
2017-Nov-16 23:24N 37°59' E 013°43'0 0.0
2017-Nov-16 22:51N 37°59' E 013°43'0 0.0
2017-Nov-16 22:21N 37°59' E 013°43'0 0.0
2017-Nov-16 22:00N 37°59' E 013°43'0 0.0
2017-Nov-16 21:21N 37°59' E 013°43'0 0.0
2017-Nov-16 20:48N 37°59' E 013°43'0 0.0
2017-Nov-16 20:21N 37°59' E 013°43'0 0.0
2017-Nov-16 19:51N 37°59' E 013°43'0 0.0
2017-Nov-16 19:21N 37°59' E 013°43'0 0.0
2017-Nov-16 18:39N 37°59' E 013°43'0 0.0
2017-Nov-16 18:09N 37°59' E 013°43'0 0.0
2017-Nov-16 17:51N 37°59' E 013°43'0 0.0
2017-Nov-16 16:21N 37°59' E 013°43'0 0.0
2017-Nov-16 09:21N 37°59' E 013°43'0 0.0
2017-Nov-16 09:00N 37°59' E 013°43'0 0.0
2017-Nov-16 08:21N 37°59' E 013°43'0 0.0
2017-Nov-16 07:51N 37°59' E 013°43'0 0.0
2017-Nov-16 07:03N 37°59' E 013°43'0 0.0
2017-Nov-16 06:51N 37°59' E 013°43'0 0.0
2017-Nov-16 06:24N 37°59' E 013°43'0 0.0
2017-Nov-16 06:00N 37°59' E 013°43'0 0.0
2017-Nov-16 05:30N 37°59' E 013°43'0 0.0
2017-Nov-16 04:54N 37°59' E 013°43'0 0.0
2017-Nov-16 04:21N 37°59' E 013°43'0 0.0
2017-Nov-16 03:42N 37°59' E 013°43'0 0.0
2017-Nov-16 03:21N 37°59' E 013°43'0 0.0
2017-Nov-16 02:57N 37°59' E 013°43'0 0.0
2017-Nov-16 02:27N 37°59' E 013°43'0 0.0
2017-Nov-16 02:00N 37°59' E 013°43'0 0.0
2017-Nov-16 01:30N 37°59' E 013°43'0 0.0
2017-Nov-16 00:45N 37°59' E 013°43'0 0.0
2017-Nov-16 00:27N 37°59' E 013°43'0 0.0
2017-Nov-15 23:54N 37°59' E 013°43'0 0.0
2017-Nov-15 23:30N 37°59' E 013°43'0 0.0
2017-Nov-15 22:57N 37°59' E 013°43'0 0.0
2017-Nov-15 22:27N 37°59' E 013°43'0 0.0
2017-Nov-15 21:57N 37°59' E 013°43'0 0.0
2017-Nov-15 21:27N 37°59' E 013°43'0 0.0
2017-Nov-15 21:00N 37°59' E 013°43'0 0.0
2017-Nov-15 20:30N 37°59' E 013°43'0 0.0
2017-Nov-15 20:00N 37°59' E 013°43'0 0.0
2017-Nov-15 19:21N 37°59' E 013°43'0 0.0
2017-Nov-15 08:27N 37°59' E 013°43'0 0.0
2017-Nov-15 07:57N 37°59' E 013°43'0 0.0
2017-Nov-15 07:30N 37°59' E 013°43'0 0.0
2017-Nov-15 06:48N 37°59' E 013°43'0 0.0
2017-Nov-15 06:30N 37°59' E 013°43'0 0.0
2017-Nov-15 05:51N 37°59' E 013°43'0 0.0
2017-Nov-15 05:21N 37°59' E 013°43'0 0.0
2017-Nov-15 05:00N 37°59' E 013°43'0 0.0
2017-Nov-15 04:24N 37°59' E 013°43'0 0.0
2017-Nov-15 03:51N 37°59' E 013°43'0 0.0
2017-Nov-15 03:21N 37°59' E 013°43'0 0.0
2017-Nov-15 02:51N 37°59' E 013°43'0 0.0
2017-Nov-15 02:21N 37°59' E 013°43'0 0.0
2017-Nov-15 01:54N 37°59' E 013°43'0 0.0
2017-Nov-15 01:21N 37°59' E 013°43'0 0.0
2017-Nov-15 00:51N 37°59' E 013°43'0 0.0
2017-Nov-15 00:21N 37°59' E 013°43'0 0.0
2017-Nov-14 23:51N 37°59' E 013°43'0 0.0
2017-Nov-14 23:27N 37°59' E 013°43'0 0.0
2017-Nov-14 22:57N 37°59' E 013°43'0 0.0
2017-Nov-14 22:27N 37°59' E 013°43'0 0.0
2017-Nov-14 21:57N 37°59' E 013°43'0 0.0
2017-Nov-14 21:30N 37°59' E 013°43'0 0.0
2017-Nov-14 20:57N 37°59' E 013°43'0 0.0
2017-Nov-14 20:27N 37°59' E 013°43'0 0.0
2017-Nov-14 19:57N 37°59' E 013°43'0 0.0
2017-Nov-14 19:27N 37°59' E 013°43'0 0.0
2017-Nov-14 18:57N 37°59' E 013°43'0 0.0
2017-Nov-14 18:27N 37°59' E 013°43'0 0.0
2017-Nov-14 17:45N 37°59' E 013°43'0 0.0
2017-Nov-14 17:15N 37°59' E 013°43'0 0.0
2017-Nov-14 17:00N 37°59' E 013°43'0 0.0
2017-Nov-14 16:03N 37°59' E 013°43'0 0.1
2017-Nov-14 16:00N 37°59' E 013°43'0 0.0
2017-Nov-14 15:18N 37°59' E 013°43'0 0.0
2017-Nov-14 14:51N 37°59' E 013°43'0 0.0
2017-Nov-14 14:21N 37°59' E 013°43'0 0.0
2017-Nov-14 13:51N 37°59' E 013°43'0 0.0
2017-Nov-14 13:21N 37°59' E 013°43'0 0.0
2017-Nov-14 12:21N 37°59' E 013°43'0 0.0
2017-Nov-14 11:39N 37°59' E 013°43'0 0.0
2017-Nov-14 11:21N 37°59' E 013°43'0 0.0
2017-Nov-14 10:57N 37°59' E 013°43'0 0.0
2017-Nov-14 10:27N 37°59' E 013°43'0 0.0
2017-Nov-14 09:57N 37°59' E 013°43'0 0.0
2017-Nov-14 09:27N 37°59' E 013°43'0 0.0
2017-Nov-14 08:39N 37°59' E 013°43'0 0.0
2017-Nov-14 08:30N 37°59' E 013°43'0 0.0
2017-Nov-14 07:57N 37°59' E 013°43'0 0.0
2017-Nov-14 07:27N 37°59' E 013°43'0 0.0
2017-Nov-14 06:57N 37°59' E 013°43'0 0.0
2017-Nov-14 06:27N 37°59' E 013°43'0 0.0
2017-Nov-14 06:00N 37°59' E 013°43'0 0.0
2017-Nov-14 05:27N 37°59' E 013°43'0 0.0
2017-Nov-14 04:27N 37°59' E 013°43'0 0.0
2017-Nov-14 03:45N 37°59' E 013°43'0 0.0
2017-Nov-14 03:03N 37°59' E 013°43'0 0.0
2017-Nov-14 02:33N 37°59' E 013°43'0 0.0
2017-Nov-14 02:15N 37°59' E 013°43'0 0.0
2017-Nov-14 01:45N 37°59' E 013°43'0 0.0
2017-Nov-14 01:21N 37°59' E 013°43'0 0.0
2017-Nov-13 22:39N 37°59' E 013°43'0 0.0
2017-Nov-13 22:21N 37°59' E 013°43'0 0.0
2017-Nov-13 21:39N 37°59' E 013°43'0 0.0
2017-Nov-13 01:57N 37°59' E 013°43'0 0.0
2017-Nov-13 01:27N 37°59' E 013°43'0 0.0
2017-Nov-13 00:45N 37°59' E 013°43'0 0.0
2017-Nov-13 00:15N 37°59' E 013°43'0 0.0
2017-Nov-12 23:45N 37°59' E 013°43'0 0.0
2017-Nov-12 11:03N 37°59' E 013°43'0 0.0
2017-Nov-12 10:33N 37°59' E 013°43'0 0.0
2017-Nov-12 10:15N 37°59' E 013°43'0 0.0
2017-Nov-12 09:51N 37°59' E 013°43'0 0.0
2017-Nov-12 09:21N 37°59' E 013°43'0 0.0
2017-Nov-12 08:51N 37°59' E 013°43'0 0.0
2017-Nov-12 08:21N 37°59' E 013°43'0 0.0
2017-Nov-12 07:51N 37°59' E 013°43'0 0.0
2017-Nov-12 07:21N 37°59' E 013°43'0 0.0
2017-Nov-12 06:51N 37°59' E 013°43'0 0.0
2017-Nov-12 06:21N 37°59' E 013°43'0 0.0
2017-Nov-12 05:51N 37°59' E 013°43'0 0.0
2017-Nov-12 05:21N 37°59' E 013°43'0 0.0
2017-Nov-12 03:39N 37°59' E 013°43'0 0.0
2017-Nov-12 03:09N 37°59' E 013°43'0 0.0
2017-Nov-12 02:57N 37°59' E 013°43'0 0.0
2017-Nov-11 12:57N 37°59' E 013°43'0 0.0
2017-Nov-11 12:27N 37°59' E 013°43'0 0.0
2017-Nov-11 12:00N 37°59' E 013°43'0 0.0
2017-Nov-11 11:30N 37°59' E 013°43'0 0.0
2017-Nov-11 11:00N 37°59' E 013°43'0 0.0
2017-Nov-11 10:27N 37°59' E 013°43'0 0.0
2017-Nov-11 10:00N 37°59' E 013°43'0 0.0
2017-Nov-11 09:27N 37°59' E 013°43'0 0.0
2017-Nov-11 08:57N 37°59' E 013°43'0 0.0
2017-Nov-11 08:30N 37°59' E 013°43'0 0.0
2017-Nov-11 07:48N 37°59' E 013°43'0 0.0
2017-Nov-11 07:15N 37°59' E 013°43'0 0.0
2017-Nov-11 07:00N 37°59' E 013°43'0 0.0
2017-Nov-11 06:15N 37°59' E 013°43'0 0.0
2017-Nov-11 05:51N 37°59' E 013°43'0 0.0
2017-Nov-11 05:21N 37°59' E 013°43'0 0.0
2017-Nov-11 04:51N 37°59' E 013°43'0 0.0
2017-Nov-11 04:21N 37°59' E 013°43'0 0.0
2017-Nov-11 03:51N 37°59' E 013°43'0 0.0
2017-Nov-11 03:21N 37°59' E 013°43'0 0.0
2017-Nov-11 02:51N 37°59' E 013°43'0 0.0
2017-Nov-11 02:24N 37°59' E 013°43'0 0.0
2017-Nov-11 01:54N 37°59' E 013°43'0 0.0
2017-Nov-11 01:21N 37°59' E 013°43'0 0.0
2017-Nov-11 00:57N 37°59' E 013°43'0 0.0
2017-Nov-11 00:27N 37°59' E 013°43'0 0.0
2017-Nov-11 00:01N 37°59' E 013°43'1 1.1
2017-Nov-10 23:29N 37°59' E 013°43'1 3.1
2017-Nov-10 23:01N 38°00' E 013°44'1 2.8
2017-Nov-10 22:31N 38°01' E 013°45'0 0.7
2017-Nov-10 22:00N 38°02' E 013°46'1 2.0
2017-Nov-10 21:30N 38°02' E 013°47'2 3.5
2017-Nov-10 21:00N 38°03' E 013°49'2 4.3
2017-Nov-10 20:31N 38°04' E 013°51'2 4.3
2017-Nov-10 20:00N 38°06' E 013°53'3 5.0
2017-Nov-10 19:29N 38°07' E 013°56'65 8.3
2017-Nov-10 11:38N 38°19' E 015°17'1 8.2
2017-Nov-10 11:30N 38°19' E 015°19'4 8.6
2017-Nov-10 11:00N 38°19' E 015°24'4 8.4
2017-Nov-10 10:30N 38°19' E 015°29'4 8.4
2017-Nov-10 10:00N 38°19' E 015°35'4 8.1
2017-Nov-10 09:29N 38°18' E 015°40'3 6.0
2017-Nov-10 09:00N 38°15' E 015°40'4 8.5
2017-Nov-10 08:30N 38°12' E 015°37'4 8.1
2017-Nov-10 08:00N 38°08' E 015°36'4 8.5
2017-Nov-10 07:30N 38°03' E 015°36'4 8.2
2017-Nov-10 07:01N 37°59' E 015°36'5 7.9
2017-Nov-10 06:25N 37°55' E 015°39'3 8.1
2017-Nov-10 06:00N 37°53' E 015°42'  

Dump ship's entire track history